Time;durP1;ratioP1;P1;durP2;ratioP2;P2;SDS_P1;SDS_P2;PMS_P1;PMS_P2;Temp;Humidity;BMP_temperature;BMP_pressure;BME280_temperature;BME280_humidity;BME280_pressure;Samples;Min_cycle;Max_cycle;Signal;HPM_P1;HPM_P2
2021/04/28 00:01:56;;;;;;;3.77;1.93;;;8.00;50.50;;;;;;5073853;28;20202;-79
2021/04/28 00:04:22;;;;;;;5.37;2.03;;;8.00;50.40;;;;;;5072632;28;20035;-79
2021/04/28 00:06:49;;;;;;;5.27;2.40;;;8.00;50.50;;;;;;5011229;28;20036;-79
2021/04/28 00:09:17;;;;;;;5.43;1.80;;;7.90;50.50;;;;;;5024685;28;20401;-79
2021/04/28 00:11:43;;;;;;;4.23;2.13;;;7.90;50.50;;;;;;5042567;28;20027;-79
2021/04/28 00:14:17;;;;;;;6.10;1.93;;;7.90;50.50;;;;;;5046010;28;20400;-79
2021/04/28 00:16:44;;;;;;;3.50;1.80;;;7.80;50.60;;;;;;5044627;28;20043;-79
2021/04/28 00:19:10;;;;;;;4.00;2.20;;;7.80;50.50;;;;;;5058529;28;20053;-79
2021/04/28 00:21:37;;;;;;;6.17;2.10;;;7.80;51.00;;;;;;5042379;28;20554;-78
2021/04/28 00:24:04;;;;;;;2.87;1.43;;;7.80;51.10;;;;;;5048833;28;20036;-79
2021/04/28 00:26:31;;;;;;;4.17;1.87;;;7.80;51.00;;;;;;5070778;28;20496;-79
2021/04/28 00:29:02;;;;;;;6.37;1.90;;;7.80;50.90;;;;;;5041214;28;20474;-79
2021/04/28 00:31:29;;;;;;;5.80;2.83;;;7.70;50.90;;;;;;5076513;28;20111;-79
2021/04/28 00:33:56;;;;;;;5.93;2.20;;;7.70;51.00;;;;;;5048620;28;20517;-79
2021/04/28 00:36:22;;;;;;;4.40;1.50;;;7.70;51.20;;;;;;5025974;28;20058;-79
2021/04/28 00:38:49;;;;;;;4.10;1.90;;;7.70;51.20;;;;;;5048019;28;20055;-79
2021/04/28 00:41:17;;;;;;;4.30;1.87;;;7.70;51.40;;;;;;5057532;28;20055;-79
2021/04/28 00:43:45;;;;;;;8.43;2.53;;;7.60;51.40;;;;;;5060792;28;20055;-79
2021/04/28 00:46:12;;;;;;;3.23;1.97;;;7.60;51.40;;;;;;5059347;28;20062;-79
2021/04/28 00:48:39;;;;;;;4.67;2.17;;;7.60;51.60;;;;;;5077245;28;20442;-79
2021/04/28 00:51:06;;;;;;;6.50;2.50;;;7.60;51.70;;;;;;5041873;28;20055;-79
2021/04/28 00:53:33;;;;;;;11.17;2.40;;;7.60;51.90;;;;;;5062919;28;20032;-78
2021/04/28 00:56:01;;;;;;;6.80;2.30;;;7.60;51.80;;;;;;5065810;28;20044;-79
2021/04/28 00:58:28;;;;;;;7.23;2.13;;;7.60;52.00;;;;;;5026130;28;20032;-79
2021/04/28 01:00:57;;;;;;;5.40;1.80;;;7.50;51.90;;;;;;5057866;28;20387;-79
2021/04/28 01:03:28;;;;;;;4.53;2.17;;;7.50;51.90;;;;;;5057392;28;20032;-79
2021/04/28 01:05:58;;;;;;;4.17;2.20;;;7.50;51.90;;;;;;5038442;28;20047;-79
2021/04/28 01:08:25;;;;;;;5.87;1.77;;;7.40;52.20;;;;;;5046498;28;20028;-79
2021/04/28 01:10:56;;;;;;;5.77;2.37;;;7.40;52.10;;;;;;5075221;28;20044;-79
2021/04/28 01:13:24;;;;;;;6.33;1.70;;;7.30;52.40;;;;;;5065673;28;20039;-79
2021/04/28 01:15:53;;;;;;;3.67;1.53;;;7.30;52.40;;;;;;5048620;28;20040;-79
2021/04/28 01:18:21;;;;;;;3.60;2.00;;;7.30;52.60;;;;;;5071329;28;20541;-79
2021/04/28 01:20:48;;;;;;;6.37;2.27;;;7.20;53.20;;;;;;5055382;28;20036;-80
2021/04/28 01:23:18;;;;;;;11.17;5.27;;;7.20;52.70;;;;;;5057564;28;20056;-79
2021/04/28 01:25:50;;;;;;;5.70;3.13;;;7.20;52.90;;;;;;5058981;28;20047;-78
2021/04/28 01:28:21;;;;;;;4.30;2.50;;;7.20;53.10;;;;;;5073287;28;20063;-79
2021/04/28 01:31:03;;;;;;;6.33;2.27;;;7.10;52.90;;;;;;5043104;28;20483;-80
2021/04/28 01:33:43;;;;;;;8.37;2.33;;;7.10;52.90;;;;;;5034667;28;20037;-80
2021/04/28 01:36:19;;;;;;;6.93;2.70;;;7.00;53.30;;;;;;5039571;28;20502;-79
2021/04/28 01:38:53;;;;;;;11.97;2.33;;;7.00;54.10;;;;;;5059140;28;20437;-80
2021/04/28 01:41:26;;;;;;;3.97;2.03;;;6.90;53.40;;;;;;5071687;28;20059;-79
2021/04/28 01:43:56;;;;;;;9.93;2.83;;;6.90;53.60;;;;;;5050217;28;20044;-79
2021/04/28 01:46:29;;;;;;;6.20;1.90;;;6.90;53.90;;;;;;5039807;28;20589;-79
2021/04/28 01:48:59;;;;;;;4.83;1.90;;;6.90;53.80;;;;;;5038180;28;20048;-79
2021/04/28 01:51:31;;;;;;;4.03;2.43;;;6.80;53.70;;;;;;5039659;28;20040;-79
2021/04/28 01:53:58;;;;;;;4.40;2.20;;;6.80;54.20;;;;;;5056522;28;20501;-79
2021/04/28 01:56:26;;;;;;;4.37;2.37;;;6.80;54.10;;;;;;5044482;28;20047;-79
2021/04/28 01:59:18;;;;;;;4.33;2.70;;;6.80;54.30;;;;;;5037908;28;20401;-79
2021/04/28 02:02:12;;;;;;;4.63;2.20;;;6.80;54.30;;;;;;5060916;28;20063;-79
2021/04/28 02:04:43;;;;;;;3.63;1.70;;;6.80;54.40;;;;;;5058803;28;20495;-79
2021/04/28 02:07:13;;;;;;;5.90;2.67;;;6.80;54.30;;;;;;5078385;28;20043;-80
2021/04/28 02:09:40;;;;;;;7.03;2.60;;;6.70;54.30;;;;;;5043818;28;20035;-79
2021/04/28 02:12:12;;;;;;;8.27;3.30;;;6.70;54.60;;;;;;5019670;28;20387;-79
2021/04/28 02:14:40;;;;;;;4.13;1.80;;;6.60;54.60;;;;;;5076937;28;20054;-79
2021/04/28 02:17:20;;;;;;;7.57;2.07;;;6.60;55.10;;;;;;5060460;28;20045;-79
2021/04/28 02:19:49;;;;;;;3.77;2.77;;;6.60;54.70;;;;;;5055476;28;20045;-79
2021/04/28 02:22:16;;;;;;;9.87;2.87;;;6.60;55.10;;;;;;5059454;28;20579;-79
2021/04/28 02:25:09;;;;;;;5.57;2.50;;;6.60;55.30;;;;;;5062910;28;20487;-79
2021/04/28 02:27:45;;;;;;;5.33;2.50;;;6.50;55.40;;;;;;5040291;28;20049;-79
2021/04/28 02:30:14;;;;;;;6.97;2.00;;;6.50;55.20;;;;;;5046232;28;20036;-79
2021/04/28 02:32:43;;;;;;;3.47;2.20;;;6.50;55.20;;;;;;5077891;28;20044;-78
2021/04/28 02:35:28;;;;;;;5.70;2.70;;;6.50;55.40;;;;;;5076183;28;20036;-79
2021/04/28 02:38:20;;;;;;;10.47;5.90;;;6.40;55.50;;;;;;5070259;28;20047;-79
2021/04/28 02:41:08;;;;;;;8.20;3.47;;;6.40;55.60;;;;;;5066091;28;20051;-78
2021/04/28 02:43:40;;;;;;;8.30;3.90;;;6.40;55.60;;;;;;5055262;28;20032;-79
2021/04/28 02:46:14;;;;;;;5.20;2.80;;;6.40;55.80;;;;;;5074211;28;20044;-79
2021/04/28 02:48:44;;;;;;;4.25;2.88;;;6.30;55.80;;;;;;5070534;28;20036;-80
2021/04/28 02:51:30;;;;;;;5.90;3.10;;;6.30;56.10;;;;;;5076508;28;20040;-79
2021/04/28 02:53:59;;;;;;;6.53;2.80;;;6.30;56.20;;;;;;5078115;28;20051;-79
2021/04/28 02:56:36;;;;;;;5.00;2.07;;;6.20;56.10;;;;;;5059672;28;20063;-79
2021/04/28 02:59:04;;;;;;;5.57;2.20;;;6.20;56.00;;;;;;5040602;28;20055;-79
2021/04/28 03:01:31;;;;;;;3.83;1.70;;;6.20;56.10;;;;;;5056988;28;20048;-80
2021/04/28 03:03:59;;;;;;;6.67;2.93;;;6.20;56.10;;;;;;5045069;28;20041;-79
2021/04/28 03:06:45;;;;;;;8.90;3.10;;;6.10;56.30;;;;;;5066301;28;20047;-79
2021/04/28 03:09:16;;;;;;;5.93;2.30;;;6.10;56.60;;;;;;5059456;28;20395;-79
2021/04/28 03:11:43;;;;;;;4.90;2.50;;;6.10;56.70;;;;;;5033073;28;20138;-79
2021/04/28 03:14:19;;;;;;;5.73;2.43;;;6.00;57.00;;;;;;5058556;28;20052;-79
2021/04/28 03:16:46;;;;;;;4.50;2.57;;;6.10;56.80;;;;;;5043618;28;20039;-79
2021/04/28 03:19:16;;;;;;;7.03;2.80;;;6.00;56.90;;;;;;5039544;28;20044;-79
2021/04/28 03:21:49;;;;;;;8.27;3.83;;;6.00;57.20;;;;;;5064342;28;20062;-78
2021/04/28 03:24:17;;;;;;;5.27;3.20;;;6.00;57.40;;;;;;5074461;28;20051;-78
2021/04/28 03:26:44;;;;;;;8.50;5.10;;;6.00;57.10;;;;;;5075326;28;20102;-78
2021/04/28 03:29:11;;;;;;;8.50;3.53;;;6.00;57.30;;;;;;5053365;28;20383;-79
2021/04/28 03:31:40;;;;;;;7.27;3.30;;;5.90;57.10;;;;;;5045143;28;20041;-79
2021/04/28 03:34:09;;;;;;;6.83;2.83;;;5.90;57.40;;;;;;5056811;28;20063;-79
2021/04/28 03:36:36;;;;;;;10.33;3.17;;;5.90;57.60;;;;;;5014489;28;20047;-79
2021/04/28 03:39:18;;;;;;;4.60;2.92;;;5.80;57.90;;;;;;5045053;28;20040;-79
2021/04/28 03:41:45;;;;;;;6.30;2.40;;;5.80;57.90;;;;;;5034017;28;20047;-79
2021/04/28 03:44:12;;;;;;;5.90;2.63;;;5.80;58.00;;;;;;5035426;28;20490;-79
2021/04/28 03:46:39;;;;;;;8.93;2.40;;;5.80;58.00;;;;;;5059847;28;20044;-79
2021/04/28 03:49:06;;;;;;;5.93;2.53;;;5.70;57.90;;;;;;5076759;28;20458;-79
2021/04/28 03:51:33;;;;;;;12.20;3.10;;;5.70;58.00;;;;;;5051854;28;20044;-79
2021/04/28 03:54:20;;;;;;;5.27;2.20;;;5.60;58.40;;;;;;5063344;28;20055;-79
2021/04/28 03:56:57;;;;;;;7.57;2.33;;;5.60;58.60;;;;;;5030984;28;20051;-79
2021/04/28 03:59:24;;;;;;;7.13;3.70;;;5.60;58.50;;;;;;5061999;28;20376;-79
2021/04/28 04:01:54;;;;;;;6.40;3.13;;;5.60;58.80;;;;;;5057895;28;20041;-80
2021/04/28 04:04:21;;;;;;;9.37;3.27;;;5.60;58.80;;;;;;5030136;28;20052;-80
2021/04/28 04:07:06;;;;;;;7.80;2.87;;;5.50;58.90;;;;;;5057456;28;20521;-79
2021/04/28 04:09:36;;;;;;;6.63;2.97;;;5.50;59.10;;;;;;5069291;28;20059;-80
2021/04/28 04:12:03;;;;;;;4.93;3.07;;;5.50;59.10;;;;;;5017245;28;20047;-80
2021/04/28 04:14:37;;;;;;;3.70;2.47;;;5.50;59.50;;;;;;5051601;28;20052;-80
2021/04/28 04:17:04;;;;;;;8.40;2.87;;;5.50;59.20;;;;;;5045922;28;20040;-81
2021/04/28 04:19:31;;;;;;;5.33;2.83;;;5.50;59.30;;;;;;5071823;28;20040;-81
2021/04/28 04:22:09;;;;;;;4.63;2.83;;;5.40;59.30;;;;;;5045496;28;20036;-80
2021/04/28 04:24:50;;;;;;;6.43;3.83;;;5.50;59.40;;;;;;5045396;28;20048;-80
2021/04/28 04:27:17;;;;;;;9.33;5.67;;;5.40;59.30;;;;;;5046114;28;20047;-80
2021/04/28 04:30:09;;;;;;;13.50;7.10;;;5.40;59.60;;;;;;5048471;28;20040;-80
2021/04/28 04:33:04;;;;;;;6.90;3.73;;;5.40;59.70;;;;;;5016621;28;20076;-81
2021/04/28 04:35:50;;;;;;;4.67;3.20;;;5.40;59.60;;;;;;5068249;28;20051;-81
2021/04/28 04:38:29;;;;;;;5.17;2.53;;;5.50;59.70;;;;;;5048752;28;20874;-81
2021/04/28 04:41:09;;;;;;;8.53;2.93;;;5.50;59.80;;;;;;5051274;28;20047;-80
2021/04/28 04:43:59;;;;;;;5.83;3.07;;;5.50;59.80;;;;;;5030172;28;20062;-80
2021/04/28 04:47:04;;;;;;;5.77;2.77;;;5.60;59.80;;;;;;5038437;28;20031;-79
2021/04/28 04:49:31;;;;;;;4.87;2.73;;;5.60;59.80;;;;;;5077950;28;20549;-79
2021/04/28 04:51:58;;;;;;;4.87;3.00;;;5.70;59.50;;;;;;5063759;28;20482;-80
2021/04/28 04:54:25;;;;;;;8.80;2.97;;;5.70;59.50;;;;;;5063623;28;20760;-79
2021/04/28 04:56:51;;;;;;;6.37;3.23;;;5.80;59.40;;;;;;5042149;28;20039;-79
2021/04/28 04:59:19;;;;;;;9.00;6.20;;;5.90;59.20;;;;;;5055926;28;20045;-79
2021/04/28 05:01:46;;;;;;;13.83;6.73;;;6.00;58.90;;;;;;5058685;28;20036;-77
2021/04/28 05:04:12;;;;;;;6.90;2.67;;;6.20;58.60;;;;;;5076439;28;20051;-78
2021/04/28 05:06:39;;;;;;;7.10;3.40;;;6.40;58.10;;;;;;5077664;28;20036;-79
2021/04/28 05:09:05;;;;;;;4.57;2.37;;;6.60;57.60;;;;;;5056258;28;20052;-79
2021/04/28 05:11:32;;;;;;;6.80;2.80;;;6.70;57.20;;;;;;5042613;28;20044;-79
2021/04/28 05:13:58;;;;;;;4.97;3.00;;;6.70;57.00;;;;;;5032953;28;20399;-79
2021/04/28 05:16:25;;;;;;;7.17;4.37;;;6.70;57.00;;;;;;5041658;28;20039;-80
2021/04/28 05:18:53;;;;;;;8.93;4.87;;;6.80;57.00;;;;;;5030417;28;20545;-79
2021/04/28 05:21:19;;;;;;;5.97;3.87;;;6.70;57.00;;;;;;5061347;28;20040;-79
2021/04/28 05:23:47;;;;;;;4.73;3.40;;;6.90;57.00;;;;;;5031163;28;20127;-79
2021/04/28 05:26:32;;;;;;;4.47;2.83;;;6.90;56.80;;;;;;5045758;28;20407;-79
2021/04/28 05:28:58;;;;;;;4.97;2.80;;;7.00;56.60;;;;;;5024841;28;20043;-80
2021/04/28 05:31:25;;;;;;;8.70;2.93;;;7.10;56.20;;;;;;5061395;28;20036;-78
2021/04/28 05:33:51;;;;;;;6.70;3.50;;;7.30;56.20;;;;;;5046749;28;20048;-78
2021/04/28 05:36:18;;;;;;;7.93;3.80;;;7.40;55.90;;;;;;5040567;28;20040;-79
2021/04/28 05:38:44;;;;;;;10.93;3.37;;;7.50;55.40;;;;;;5055085;28;20052;-79
2021/04/28 05:41:11;;;;;;;7.50;2.63;;;7.70;55.10;;;;;;5049052;28;20055;-79
2021/04/28 05:43:38;;;;;;;4.67;2.90;;;7.70;54.90;;;;;;5045868;28;20032;-79
2021/04/28 05:46:05;;;;;;;4.90;3.57;;;7.80;54.80;;;;;;5060304;28;20036;-79
2021/04/28 05:48:32;;;;;;;3.87;2.40;;;8.10;55.30;;;;;;5044050;28;20040;-79
2021/04/28 05:50:59;;;;;;;4.50;2.60;;;8.30;54.30;;;;;;5051223;28;20044;-79
2021/04/28 05:53:26;;;;;;;4.63;2.67;;;8.60;53.90;;;;;;5034715;28;20047;-79
2021/04/28 05:55:52;;;;;;;6.57;3.00;;;8.80;53.40;;;;;;5048974;28;20051;-79
2021/04/28 05:58:19;;;;;;;6.17;2.53;;;9.00;52.10;;;;;;5060108;28;20044;-79
2021/04/28 06:00:45;;;;;;;4.97;2.43;;;9.10;51.90;;;;;;5033787;28;20040;-79
2021/04/28 06:03:12;;;;;;;3.80;2.50;;;9.10;51.90;;;;;;5044788;28;20360;-79
2021/04/28 06:05:38;;;;;;;4.17;2.80;;;9.20;51.90;;;;;;5055460;28;20059;-79
2021/04/28 06:08:05;;;;;;;5.97;2.30;;;9.20;51.80;;;;;;5043000;28;20044;-79
2021/04/28 06:10:31;;;;;;;6.77;2.80;;;9.20;51.40;;;;;;5071787;28;20029;-79
2021/04/28 06:12:58;;;;;;;4.97;2.93;;;9.20;51.10;;;;;;5032835;28;20039;-79
2021/04/28 06:15:24;;;;;;;3.27;2.30;;;9.30;51.00;;;;;;5059818;28;20055;-79
2021/04/28 06:17:51;;;;;;;6.83;2.57;;;9.30;51.10;;;;;;5075010;28;20515;-79
2021/04/28 06:20:18;;;;;;;5.60;2.90;;;9.40;51.10;;;;;;5054469;28;20404;-79
2021/04/28 06:22:45;;;;;;;4.83;3.10;;;9.60;51.00;;;;;;5038783;28;20410;-79
2021/04/28 06:25:13;;;;;;;6.43;3.10;;;9.80;50.10;;;;;;5051190;28;20036;-79
2021/04/28 06:27:40;;;;;;;7.07;3.05;;;10.00;49.80;;;;;;5016784;28;20037;-79
2021/04/28 06:30:08;;;;;;;8.77;3.17;;;10.10;48.90;;;;;;5058144;28;20048;-79
2021/04/28 06:32:35;;;;;;;4.32;3.08;;;10.20;49.00;;;;;;5043063;28;20040;-79
2021/04/28 06:35:04;;;;;;;6.35;3.10;;;10.40;48.40;;;;;;5056112;28;20049;-79
2021/04/28 06:37:30;;;;;;;4.85;2.92;;;10.50;48.50;;;;;;5060232;28;20051;-80
2021/04/28 06:39:57;;;;;;;3.63;2.45;;;10.60;48.30;;;;;;5024232;28;20036;-79
2021/04/28 06:42:23;;;;;;;6.47;3.28;;;10.70;48.30;;;;;;5049270;28;20063;-79
2021/04/28 06:44:50;;;;;;;8.48;2.55;;;10.80;48.30;;;;;;5033570;28;20036;-79
2021/04/28 06:47:17;;;;;;;4.65;2.20;;;10.90;48.30;;;;;;5030655;28;20043;-79
2021/04/28 06:49:44;;;;;;;7.25;2.95;;;11.00;47.90;;;;;;5061599;28;20045;-79
2021/04/28 06:52:10;;;;;;;3.65;2.65;;;11.20;47.60;;;;;;5040590;28;20037;-79
2021/04/28 06:54:37;;;;;;;7.70;2.70;;;11.20;47.20;;;;;;5031578;28;20491;-79
2021/04/28 06:57:03;;;;;;;4.93;2.95;;;11.20;47.10;;;;;;5042485;28;20395;-79
2021/04/28 06:59:30;;;;;;;4.05;2.83;;;11.30;46.70;;;;;;5059484;28;20041;-79
2021/04/28 07:01:56;;;;;;;6.30;3.53;;;11.30;46.90;;;;;;5041267;28;20036;-79
2021/04/28 07:04:23;;;;;;;4.78;3.08;;;11.20;46.60;;;;;;5046455;28;20047;-79
2021/04/28 07:06:50;;;;;;;5.75;3.15;;;11.30;46.40;;;;;;5048900;28;20036;-79
2021/04/28 07:09:17;;;;;;;6.50;3.35;;;11.20;46.40;;;;;;5055126;28;20482;-79
2021/04/28 07:11:43;;;;;;;4.53;3.30;;;11.30;46.40;;;;;;5047396;28;20055;-79
2021/04/28 07:14:10;;;;;;;4.60;3.55;;;11.40;46.70;;;;;;5057829;28;20032;-79
2021/04/28 07:16:37;;;;;;;8.15;3.17;;;11.60;46.50;;;;;;5060551;28;20047;-79
2021/04/28 07:19:03;;;;;;;4.80;3.10;;;11.80;46.20;;;;;;5010538;28;20032;-79
2021/04/28 07:21:30;;;;;;;5.78;3.05;;;12.00;46.10;;;;;;5020135;28;20036;-79
2021/04/28 07:23:59;;;;;;;6.57;2.85;;;12.30;45.80;;;;;;5055087;28;20052;-79
2021/04/28 07:26:28;;;;;;;6.00;3.25;;;12.40;45.40;;;;;;5070325;28;20058;-79
2021/04/28 07:28:54;;;;;;;6.60;3.20;;;12.50;45.10;;;;;;5040406;28;20033;-79
2021/04/28 07:31:21;;;;;;;3.28;2.67;;;12.70;45.00;;;;;;5079330;28;20581;-79
2021/04/28 07:33:48;;;;;;;4.72;3.22;;;12.80;44.90;;;;;;5056217;28;20043;-79
2021/04/28 07:36:15;;;;;;;6.75;3.83;;;13.00;44.20;;;;;;5054792;28;20044;-79
2021/04/28 07:38:42;;;;;;;8.23;3.63;;;13.00;44.40;;;;;;5039875;28;20048;-79
2021/04/28 07:41:23;;;;;;;7.32;3.20;;;13.10;43.90;;;;;;5079299;28;20028;-79
2021/04/28 07:44:04;;;;;;;5.07;3.67;;;13.00;43.90;;;;;;5021396;28;20039;-81
2021/04/28 07:46:32;;;;;;;8.15;3.72;;;13.10;44.10;;;;;;5014767;28;20039;-78
2021/04/28 07:49:04;;;;;;;5.25;3.08;;;13.20;44.30;;;;;;5042507;28;20041;-78
2021/04/28 07:51:32;;;;;;;8.77;2.80;;;13.20;44.00;;;;;;5041995;28;20047;-79
2021/04/28 07:53:59;;;;;;;5.40;2.97;;;13.40;44.30;;;;;;5059125;28;20050;-79
2021/04/28 07:56:26;;;;;;;5.78;3.00;;;13.60;44.00;;;;;;5063945;28;20032;-79
2021/04/28 07:58:53;;;;;;;5.20;2.78;;;13.70;44.00;;;;;;5064251;28;20039;-79
2021/04/28 08:01:20;;;;;;;4.13;2.85;;;13.80;43.90;;;;;;5069576;28;20039;-79
2021/04/28 08:03:47;;;;;;;7.68;4.10;;;14.00;43.70;;;;;;5077368;28;20037;-79
2021/04/28 08:06:13;;;;;;;5.35;3.97;;;14.10;43.20;;;;;;5070984;28;20048;-79
2021/04/28 08:08:40;;;;;;;9.18;4.70;;;14.10;42.40;;;;;;5034386;28;20033;-79
2021/04/28 08:11:07;;;;;;;9.45;3.75;;;14.10;42.30;;;;;;5053318;28;20048;-80
2021/04/28 08:13:33;;;;;;;8.20;3.88;;;14.20;42.70;;;;;;5056638;28;20364;-80
2021/04/28 08:16:01;;;;;;;5.85;3.53;;;14.40;42.70;;;;;;5040740;28;20036;-79
2021/04/28 08:18:27;;;;;;;7.28;4.07;;;14.60;42.10;;;;;;5079962;28;20048;-78
2021/04/28 08:20:54;;;;;;;5.30;3.90;;;14.70;42.20;;;;;;5045712;28;20036;-79
2021/04/28 08:23:23;;;;;;;6.15;3.85;;;14.80;41.50;;;;;;5030412;28;20032;-79
2021/04/28 08:25:50;;;;;;;4.38;3.95;;;14.80;41.20;;;;;;5060795;28;20396;-78
2021/04/28 08:28:16;;;;;;;10.05;5.45;;;14.80;41.40;;;;;;5029203;28;20036;-78
2021/04/28 08:30:43;;;;;;;7.18;4.43;;;14.90;41.20;;;;;;5064262;28;20048;-78
2021/04/28 08:33:09;;;;;;;6.45;3.85;;;14.90;41.10;;;;;;5061406;28;20039;-78
2021/04/28 08:35:36;;;;;;;6.28;4.05;;;15.10;41.70;;;;;;5052243;28;20122;-79
2021/04/28 08:38:02;;;;;;;5.38;3.95;;;15.20;41.50;;;;;;5056043;28;20044;-79
2021/04/28 08:40:29;;;;;;;6.53;4.32;;;15.40;41.50;;;;;;5051441;28;20032;-79
2021/04/28 08:42:55;;;;;;;8.20;4.15;;;15.60;40.30;;;;;;5041351;28;20036;-79
2021/04/28 08:45:22;;;;;;;6.57;4.13;;;15.70;40.10;;;;;;5079898;28;20056;-78
2021/04/28 08:47:49;;;;;;;7.32;3.85;;;15.70;40.30;;;;;;5038742;28;20502;-79
2021/04/28 08:50:15;;;;;;;6.30;4.93;;;15.90;40.00;;;;;;5042885;28;20043;-79
2021/04/28 08:52:42;;;;;;;5.57;4.13;;;15.90;39.50;;;;;;5055869;28;20039;-79
2021/04/28 08:55:13;;;;;;;6.80;3.90;;;16.00;39.90;;;;;;5052339;28;20052;-79
2021/04/28 08:57:42;;;;;;;5.00;3.78;;;16.00;40.00;;;;;;5043418;28;20051;-79
2021/04/28 09:00:09;;;;;;;6.93;4.13;;;16.10;40.20;;;;;;5042251;28;20502;-78
2021/04/28 09:02:53;;;;;;;6.68;4.35;;;16.40;40.00;;;;;;5057499;28;20043;-79
2021/04/28 09:05:21;;;;;;;9.63;4.68;;;16.50;39.30;;;;;;5080936;28;20046;-79
2021/04/28 09:07:48;;;;;;;8.50;5.55;;;16.50;38.50;;;;;;5078004;28;20577;-79
2021/04/28 09:10:20;;;;;;;6.45;4.07;;;16.50;38.80;;;;;;5079353;28;20122;-79
2021/04/28 09:12:56;;;;;;;4.53;3.90;;;16.60;39.10;;;;;;5077883;28;20501;-79
2021/04/28 09:15:43;;;;;;;6.25;4.30;;;16.80;39.10;;;;;;5060877;28;20036;-79
2021/04/28 09:18:15;;;;;;;8.00;4.63;;;17.00;38.80;;;;;;5059033;28;20699;-79
2021/04/28 09:21:05;;;;;;;6.85;4.85;;;17.20;38.70;;;;;;5067232;28;20044;-78
2021/04/28 09:23:50;;;;;;;6.85;4.13;;;17.30;38.00;;;;;;5060599;28;20571;-78
2021/04/28 09:26:45;;;;;;;7.18;4.00;;;17.50;38.00;;;;;;5062590;28;20104;-77
2021/04/28 09:29:52;;;;;;;5.38;4.45;;;17.50;38.20;;;;;;5064182;28;20031;-78
2021/04/28 09:32:28;;;;;;;8.68;5.10;;;17.70;38.00;;;;;;5059335;28;20044;-76
2021/04/28 09:35:10;;;;;;;6.40;4.25;;;17.80;37.90;;;;;;5079349;28;20043;-77
2021/04/28 09:37:59;;;;;;;6.57;5.38;;;17.90;37.90;;;;;;5058184;28;20422;-76
2021/04/28 09:40:48;;;;;;;7.55;4.95;;;18.10;38.30;;;;;;5071984;28;20395;-76
2021/04/28 09:43:15;;;;;;;6.68;4.75;;;18.50;37.60;;;;;;5072982;28;20028;-75
2021/04/28 09:45:44;;;;;;;7.68;5.60;;;18.70;37.10;;;;;;5072388;28;20430;-76
2021/04/28 09:48:16;;;;;;;7.82;6.22;;;18.90;36.60;;;;;;5075994;28;20047;-75
2021/04/28 09:50:43;;;;;;;8.10;5.03;;;19.00;36.70;;;;;;5064257;28;20043;-76
2021/04/28 09:53:25;;;;;;;6.28;4.95;;;19.20;36.40;;;;;;5079929;28;20503;-81
2021/04/28 09:55:52;;;;;;;8.90;5.85;;;19.40;35.30;;;;;;5076158;28;20128;-77
2021/04/28 09:58:48;;;;;;;8.65;5.47;;;19.30;34.50;;;;;;5076377;28;20059;-77
2021/04/28 10:01:36;;;;;;;9.70;6.28;;;19.10;35.10;;;;;;5080259;28;20051;-77
2021/04/28 10:04:04;;;;;;;8.35;5.60;;;19.00;34.70;;;;;;5077031;28;20032;-78
2021/04/28 10:06:49;;;;;;;6.55;4.93;;;19.00;35.10;;;;;;5079460;28;20036;-77
2021/04/28 10:09:28;;;;;;;7.10;4.95;;;18.90;35.40;;;;;;5042876;28;20034;-77
2021/04/28 10:11:54;;;;;;;8.50;5.53;;;19.00;36.10;;;;;;5077745;28;20047;-77
2021/04/28 10:14:21;;;;;;;8.68;5.72;;;19.20;36.00;;;;;;5048688;28;20502;-88
2021/04/28 10:16:50;;;;;;;11.13;5.95;;;19.50;34.80;;;;;;5074061;28;20036;-88
2021/04/28 10:19:17;;;;;;;10.13;6.45;;;19.60;34.60;;;;;;5062219;28;20023;-89
2021/04/28 10:21:45;;;;;;;9.85;5.47;;;19.60;34.50;;;;;;5079951;28;20032;-87
2021/04/28 10:24:12;;;;;;;8.43;5.80;;;19.60;35.10;;;;;;5074720;28;20039;-89
2021/04/28 10:26:40;;;;;;;7.40;5.68;;;19.60;34.60;;;;;;5076282;28;20142;-88
2021/04/28 10:29:08;;;;;;;11.10;6.95;;;19.50;35.90;;;;;;5061579;28;20027;-89
2021/04/28 10:31:37;;;;;;;6.47;4.88;;;19.70;36.00;;;;;;5075776;28;20039;-89
2021/04/28 10:34:07;;;;;;;8.70;5.90;;;19.90;35.90;;;;;;5079995;28;20044;-88
2021/04/28 10:36:33;;;;;;;8.23;5.53;;;20.30;35.80;;;;;;5060956;28;20055;-89
2021/04/28 10:39:01;;;;;;;6.43;5.47;;;20.60;34.30;;;;;;5059972;28;20046;-81
2021/04/28 10:41:38;;;;;;;14.75;6.68;;;20.90;34.10;;;;;;5078135;28;20043;-80
2021/04/28 10:44:26;;;;;;;11.27;6.70;;;21.20;34.10;;;;;;5078004;28;20036;-80
2021/04/28 10:47:33;;;;;;;7.07;5.35;;;21.40;32.40;;;;;;5070141;28;20479;-80
2021/04/28 10:50:06;;;;;;;7.45;6.50;;;21.60;33.00;;;;;;5074864;28;20056;-79
2021/04/28 10:52:42;;;;;;;7.32;6.55;;;22.00;32.30;;;;;;5074307;28;20036;-79
2021/04/28 10:55:35;;;;;;;9.90;6.88;;;22.10;32.60;;;;;;5066256;28;20040;-80
2021/04/28 10:58:03;;;;;;;9.90;7.15;;;22.10;31.60;;;;;;5076579;28;20035;-79
2021/04/28 11:00:29;;;;;;;7.82;6.65;;;22.00;31.10;;;;;;5064750;28;20020;-80
2021/04/28 11:03:21;;;;;;;9.82;6.93;;;21.90;31.80;;;;;;5076086;28;20511;-87
2021/04/28 11:05:48;;;;;;;10.18;6.78;;;21.90;31.30;;;;;;5066690;28;20044;-81
2021/04/28 11:08:14;;;;;;;8.25;6.25;;;22.00;32.10;;;;;;5074861;28;20488;-80
2021/04/28 11:10:41;;;;;;;10.05;6.07;;;22.10;32.10;;;;;;5079596;28;20040;-81
2021/04/28 11:13:18;;;;;;;12.85;6.72;;;22.30;31.50;;;;;;5078018;28;20039;-83
2021/04/28 11:15:58;;;;;;;11.63;6.70;;;22.60;31.20;;;;;;5078005;28;20044;-81
2021/04/28 11:18:27;;;;;;;13.27;9.88;;;22.90;30.80;;;;;;5075590;28;20029;-80
2021/04/28 11:21:12;;;;;;;12.30;9.35;;;23.10;30.50;;;;;;5063090;28;20411;-81
2021/04/28 11:24:06;;;;;;;10.90;7.38;;;23.30;30.90;;;;;;5077695;28;20039;-81
2021/04/28 11:26:34;;;;;;;10.18;8.63;;;23.70;30.50;;;;;;5065286;28;20042;-82
2021/04/28 11:29:02;;;;;;;8.18;7.32;;;24.10;29.90;;;;;;5076676;28;20049;-83
2021/04/28 11:31:48;;;;;;;7.85;6.90;;;24.20;29.20;;;;;;5076638;28;20032;-81
2021/04/28 11:34:27;;;;;;;9.77;7.25;;;24.10;28.60;;;;;;5065260;28;20058;-80
2021/04/28 11:36:56;;;;;;;11.88;8.05;;;23.90;29.20;;;;;;5077111;28;20067;-81
2021/04/28 11:39:44;;;;;;;11.10;6.68;;;23.70;29.20;;;;;;5075555;28;20061;-79
2021/04/28 11:42:13;;;;;;;8.50;7.05;;;23.50;29.50;;;;;;5074024;28;20051;-79
2021/04/28 11:44:49;;;;;;;10.13;7.68;;;23.60;29.70;;;;;;5079666;28;20036;-80
2021/04/28 11:47:18;;;;;;;9.82;7.63;;;23.90;29.10;;;;;;5084876;28;20044;-85
2021/04/28 11:49:50;;;;;;;7.45;6.57;;;24.20;28.90;;;;;;5078001;28;20840;-85
2021/04/28 11:52:18;;;;;;;9.93;8.32;;;24.20;28.70;;;;;;5081111;28;20470;-85
2021/04/28 11:54:46;;;;;;;9.32;8.13;;;24.00;29.00;;;;;;5075826;28;20035;-86
2021/04/28 11:57:12;;;;;;;9.68;8.18;;;23.90;28.90;;;;;;5040150;28;20040;-86
2021/04/28 11:59:39;;;;;;;12.43;8.48;;;24.20;29.00;;;;;;5063035;28;20041;-85
2021/04/28 12:02:10;;;;;;;11.32;7.60;;;24.50;28.50;;;;;;5070822;28;20064;-85
2021/04/28 12:04:41;;;;;;;9.40;7.38;;;24.40;28.70;;;;;;5075025;28;20039;-85
2021/04/28 12:07:09;;;;;;;12.55;8.98;;;24.40;29.00;;;;;;5079023;28;20470;-84
2021/04/28 12:09:39;;;;;;;10.57;8.25;;;24.50;28.50;;;;;;5053427;28;20039;-84
2021/04/28 12:12:07;;;;;;;9.57;8.48;;;24.30;28.50;;;;;;5065198;28;20055;-85
2021/04/28 12:14:35;;;;;;;10.02;8.68;;;24.10;28.40;;;;;;5074510;28;20028;-85
2021/04/28 12:17:01;;;;;;;11.02;8.30;;;24.00;28.80;;;;;;5075808;28;20044;-85
2021/04/28 12:19:28;;;;;;;10.80;7.80;;;23.90;28.60;;;;;;5076422;28;20036;-85
2021/04/28 12:22:07;;;;;;;9.75;7.53;;;24.00;28.80;;;;;;5072406;28;20047;-85
2021/04/28 12:24:36;;;;;;;10.05;8.15;;;24.20;28.80;;;;;;5058301;28;20043;-85
2021/04/28 12:27:06;;;;;;;9.90;8.60;;;24.50;28.50;;;;;;5079515;28;20360;-85
2021/04/28 12:29:40;;;;;;;10.05;7.80;;;24.50;28.40;;;;;;5059213;28;20040;-85
2021/04/28 12:32:07;;;;;;;12.25;9.88;;;24.80;28.50;;;;;;5073713;28;20047;-86
2021/04/28 12:34:35;;;;;;;13.85;9.13;;;25.30;27.80;;;;;;5076604;28;20040;-87
2021/04/28 12:37:19;;;;;;;10.38;8.27;;;25.60;27.80;;;;;;5076161;28;20052;-85
2021/04/28 12:39:57;;;;;;;9.60;8.18;;;25.70;27.40;;;;;;5072685;28;20031;-85
2021/04/28 12:42:28;;;;;;;11.85;7.63;;;25.80;27.50;;;;;;5072965;28;20035;-85
2021/04/28 12:44:56;;;;;;;10.00;8.98;;;25.80;27.60;;;;;;5077613;28;20035;-85
2021/04/28 12:47:29;;;;;;;8.75;7.93;;;25.70;27.10;;;;;;5067423;28;20028;-85
2021/04/28 12:50:20;;;;;;;13.98;9.20;;;25.60;27.50;;;;;;5074331;28;20032;-84
2021/04/28 12:52:47;;;;;;;12.85;9.18;;;25.60;27.20;;;;;;5068874;28;20047;-86
2021/04/28 12:55:30;;;;;;;10.70;9.50;;;25.50;27.20;;;;;;5071504;28;20052;-86
2021/04/28 12:58:10;;;;;;;10.40;8.77;;;25.50;26.90;;;;;;5069810;28;20036;-85
2021/04/28 13:00:51;;;;;;;9.88;8.77;;;25.40;26.80;;;;;;5052799;28;20025;-84
2021/04/28 13:03:24;;;;;;;11.10;8.80;;;25.50;27.00;;;;;;5053401;28;20043;-85
2021/04/28 13:06:00;;;;;;;10.13;8.95;;;25.80;26.70;;;;;;5078060;28;20040;-84
2021/04/28 13:08:31;;;;;;;11.05;9.90;;;25.60;26.80;;;;;;5077532;28;20054;-85
2021/04/28 13:11:13;;;;;;;9.37;8.47;;;25.60;26.80;;;;;;5081152;28;20035;-84
2021/04/28 13:13:56;;;;;;;13.30;9.25;;;25.50;26.90;;;;;;5059902;28;20040;-84